ěÝzenÝ letovÚho provozu ╚eskÚ republiky
Letiste: LKKV Aktualizace: 29.05.2023 15:00:40  UTC
 METAR LKKV 29.05. 15:00 ...
METAR LKKV 291500Z 06008KT 010V110 CAVOK 21/04 Q1020=
 TAF LKKV 29.05. 11:00 ...
TAF LKKV 291100Z 2912/3012 08008KT CAVOK      TEMPO 3010/3012 03008G20KT=